Time;durP1;ratioP1;P1;durP2;ratioP2;P2;SDS_P1;SDS_P2;PMS_P1;PMS_P2;Temp;Humidity;BMP_temperature;BMP_pressure;BME280_temperature;BME280_humidity;BME280_pressure;Samples;Min_cycle;Max_cycle;Signal;HPM_P1;HPM_P2
2023/01/04 00:01:20;;;;;;;31.75;4.32;;;12.00;99.90;;;;;;5100032;28;20039;-76
2023/01/04 00:03:48;;;;;;;29.08;3.95;;;12.00;99.90;;;;;;5065376;28;20054;-75
2023/01/04 00:06:16;;;;;;;30.77;3.72;;;12.00;99.90;;;;;;5082713;28;20055;-75
2023/01/04 00:08:44;;;;;;;28.83;3.92;;;12.00;99.90;;;;;;5099630;28;20489;-75
2023/01/04 00:11:17;;;;;;;33.47;4.18;;;12.00;99.90;;;;;;5116208;28;20046;-75
2023/01/04 00:13:47;;;;;;;33.15;4.10;;;12.00;99.90;;;;;;5117595;28;20363;-75
2023/01/04 00:16:20;;;;;;;34.10;4.13;;;12.00;99.90;;;;;;5099556;28;20062;-75
2023/01/04 00:18:48;;;;;;;31.40;3.72;;;12.00;99.90;;;;;;5098605;28;20035;-76
2023/01/04 00:21:22;;;;;;;25.65;3.50;;;12.00;99.90;;;;;;5082566;28;20487;-75
2023/01/04 00:23:52;;;;;;;32.20;3.83;;;12.00;99.90;;;;;;5098289;28;20044;-75
2023/01/04 00:26:26;;;;;;;25.63;3.72;;;12.20;99.90;;;;;;5117541;28;20039;-75
2023/01/04 00:28:56;;;;;;;24.63;3.13;;;12.10;99.90;;;;;;5099511;28;20047;-75
2023/01/04 00:31:26;;;;;;;28.13;3.20;;;12.00;99.90;;;;;;5097966;28;20472;-75
2023/01/04 00:33:56;;;;;;;20.50;2.63;;;12.00;99.90;;;;;;5099709;28;20043;-75
2023/01/04 00:36:24;;;;;;;18.15;2.63;;;12.00;99.90;;;;;;5099482;28;20046;-75
2023/01/04 00:39:11;;;;;;;23.02;2.58;;;12.50;99.90;;;;;;5115702;28;20474;-75
2023/01/04 00:41:50;;;;;;;18.65;2.67;;;12.10;99.90;;;;;;5099012;28;20044;-75
2023/01/04 00:44:28;;;;;;;23.00;2.95;;;12.00;99.90;;;;;;5098262;28;20043;-75
2023/01/04 00:46:56;;;;;;;17.83;2.60;;;12.10;99.90;;;;;;5099235;28;20502;-75
2023/01/04 00:49:24;;;;;;;;;;;12.10;99.90;;;;;;5099467;28;20070;-75
2023/01/04 00:51:51;;;;;;;16.52;2.60;;;12.10;99.90;;;;;;5080842;28;20340;-75
2023/01/04 00:54:20;;;;;;;21.63;2.40;;;12.10;99.90;;;;;;5065231;28;20048;-75
2023/01/04 00:56:48;;;;;;;21.73;2.67;;;12.10;99.90;;;;;;5117146;28;20039;-75
2023/01/04 00:59:19;;;;;;;18.80;2.40;;;12.00;99.90;;;;;;5097537;28;20044;-75
2023/01/04 01:01:47;;;;;;;12.68;2.10;;;12.10;99.90;;;;;;5098485;28;20048;-75
2023/01/04 01:04:18;;;;;;;21.75;2.50;;;12.30;99.90;;;;;;5115423;28;20039;-75
2023/01/04 01:06:46;;;;;;;19.90;2.70;;;12.10;99.90;;;;;;5081589;28;20052;-75
2023/01/04 01:09:15;;;;;;;24.65;2.90;;;12.10;99.90;;;;;;5098493;28;20048;-75
2023/01/04 01:11:43;;;;;;;21.70;2.78;;;12.10;99.90;;;;;;5097113;28;20052;-75
2023/01/04 01:14:16;;;;;;;19.95;3.20;;;12.10;99.90;;;;;;5098028;28;20055;-75
2023/01/04 01:16:44;;;;;;;24.10;3.05;;;12.10;99.90;;;;;;5098448;28;20043;-75
2023/01/04 01:19:25;;;;;;;24.45;3.25;;;12.10;99.90;;;;;;5116276;28;20122;-75
2023/01/04 01:21:53;;;;;;;21.48;3.20;;;12.10;99.90;;;;;;5098018;28;20060;-75
2023/01/04 01:24:20;;;;;;;24.05;3.15;;;12.10;99.90;;;;;;5080486;28;20490;-74
2023/01/04 01:26:48;;;;;;;20.65;2.90;;;12.20;99.90;;;;;;5098556;28;20495;-75
2023/01/04 01:29:15;;;;;;;18.80;3.30;;;12.20;99.90;;;;;;5115770;28;20046;-75
2023/01/04 01:31:43;;;;;;;28.05;3.30;;;12.10;99.90;;;;;;5096943;28;20040;-75
2023/01/04 01:34:11;;;;;;;28.85;3.90;;;12.20;99.90;;;;;;5097933;28;20058;-75
2023/01/04 01:36:38;;;;;;;31.70;3.28;;;12.20;99.90;;;;;;5098415;28;20052;-77
2023/01/04 01:39:06;;;;;;;30.40;3.45;;;12.20;99.90;;;;;;5096457;28;20048;-75
2023/01/04 01:41:34;;;;;;;23.90;3.53;;;12.20;99.90;;;;;;5097710;28;20059;-77
2023/01/04 01:44:05;;;;;;;;;;;12.10;99.90;;;;;;5114946;28;20048;-75
2023/01/04 01:46:42;;;;;;;30.10;3.75;;;12.20;99.90;;;;;;5115751;28;19923;-75
2023/01/04 01:49:24;;;;;;;22.63;3.47;;;12.20;99.90;;;;;;5081578;28;20043;-75
2023/01/04 01:51:53;;;;;;;23.83;3.55;;;12.20;99.90;;;;;;5114509;28;20353;-75
2023/01/04 01:54:43;;;;;;;25.48;3.70;;;12.10;99.90;;;;;;5115510;28;20040;-77
2023/01/04 01:57:15;;;;;;;30.83;4.03;;;12.20;99.90;;;;;;5096585;28;20054;-75
2023/01/04 01:59:45;;;;;;;31.52;4.20;;;12.40;99.90;;;;;;5081213;28;20058;-75
2023/01/04 02:02:12;;;;;;;34.85;3.85;;;12.30;99.90;;;;;;5097559;28;20043;-77
2023/01/04 02:04:45;;;;;;;41.53;4.18;;;12.30;99.90;;;;;;5063265;28;20353;-75
2023/01/04 02:07:18;;;;;;;31.05;3.90;;;12.30;99.90;;;;;;5097228;28;20391;-75
2023/01/04 02:09:46;;;;;;;30.83;4.18;;;12.30;99.90;;;;;;5081271;28;20498;-75
2023/01/04 02:12:14;;;;;;;32.08;4.40;;;12.30;99.90;;;;;;5113981;28;20044;-75
2023/01/04 02:14:44;;;;;;;29.88;3.97;;;12.20;99.90;;;;;;5079799;28;20051;-75
2023/01/04 02:17:23;;;;;;;39.65;4.65;;;12.30;99.90;;;;;;5079627;28;20054;-76
2023/01/04 02:20:09;;;;;;;36.20;4.63;;;12.30;99.90;;;;;;5080518;28;20055;-76
2023/01/04 02:23:01;;;;;;;25.80;3.67;;;12.30;99.90;;;;;;5097325;28;20051;-75
2023/01/04 02:25:35;;;;;;;32.28;4.25;;;12.30;99.90;;;;;;5096292;28;20060;-76
2023/01/04 02:28:21;;;;;;;28.95;4.10;;;12.30;99.90;;;;;;5097219;28;20055;-75
2023/01/04 02:31:15;;;;;;;32.38;4.43;;;12.30;99.90;;;;;;5079865;28;20048;-75
2023/01/04 02:33:54;;;;;;;32.70;4.40;;;12.30;99.90;;;;;;5097483;28;20051;-76
2023/01/04 02:36:24;;;;;;;26.73;3.97;;;12.40;99.90;;;;;;5097271;28;20039;-76
2023/01/04 02:39:11;;;;;;;34.70;4.45;;;12.30;99.90;;;;;;5113694;28;20044;-76
2023/01/04 02:41:52;;;;;;;29.92;4.28;;;12.30;99.90;;;;;;5115381;28;20051;-76
2023/01/04 02:44:52;;;;;;;30.65;4.50;;;12.20;99.90;;;;;;5079551;28;20468;-76
2023/01/04 02:50:29;;;;;;;31.52;4.60;;;12.30;99.90;;;;;;5113901;28;20039;-75
2023/01/04 02:53:15;;;;;;;28.05;4.97;;;13.70;99.90;;;;;;5115016;28;20452;-76
2023/01/04 02:56:01;;;;;;;29.40;4.32;;;12.30;99.90;;;;;;5114648;28;20046;-76
2023/01/04 02:58:40;;;;;;;36.25;4.90;;;12.30;99.90;;;;;;5095660;28;20051;-76
2023/01/04 03:07:53;;;;;;;26.85;4.10;;;12.30;99.90;;;;;;5096758;28;20059;-75
2023/01/04 03:10:51;;;;;;;36.22;4.78;;;12.30;99.90;;;;;;5079473;28;20051;-75
2023/01/04 03:13:27;;;;;;;31.25;4.35;;;12.30;99.90;;;;;;5063825;28;20047;-75
2023/01/04 03:16:05;;;;;;;33.70;4.82;;;12.30;99.90;;;;;;5114755;28;20046;-75
2023/01/04 03:18:39;;;;;;;47.20;4.35;;;12.30;99.90;;;;;;5095838;28;20051;-76
2023/01/04 03:21:11;;;;;;;33.50;3.80;;;12.30;99.90;;;;;;5097249;28;20040;-75
2023/01/04 03:35:47;;;;;;;27.30;3.28;;;12.30;99.90;;;;;;5118200;28;20043;-76
2023/01/04 03:50:16;;;;;;;22.05;3.45;;;12.40;99.90;;;;;;5099421;28;20044;-76
2023/01/04 03:52:46;;;;;;;19.63;2.63;;;12.40;99.90;;;;;;5117362;28;20562;-76
2023/01/04 03:55:16;;;;;;;21.55;2.85;;;12.40;99.90;;;;;;5064169;28;20051;-76
2023/01/04 03:57:45;;;;;;;18.15;2.63;;;12.40;99.90;;;;;;5096639;28;20392;-76
2023/01/04 04:00:15;;;;;;;15.50;2.50;;;12.50;99.90;;;;;;5115748;28;20043;-76
2023/01/04 04:02:46;;;;;;;16.20;2.35;;;12.40;99.90;;;;;;5098249;28;20406;-76
2023/01/04 04:08:26;;;;;;;15.70;1.90;;;12.40;99.90;;;;;;5116539;28;20427;-75
2023/01/04 04:11:29;;;;;;;11.15;2.15;;;12.40;99.90;;;;;;5115905;28;20058;-77
2023/01/04 04:13:49;;;;;;;13.60;2.25;;;12.30;99.90;;;;;;5099628;28;20052;-78
2023/01/04 04:16:17;;;;;;;14.40;1.77;;;12.30;99.90;;;;;;5099625;28;20046;-77
2023/01/04 04:18:46;;;;;;;12.45;1.98;;;12.30;99.90;;;;;;5116088;28;20039;-78
2023/01/04 04:21:14;;;;;;;9.15;1.42;;;12.30;99.90;;;;;;5083038;28;20054;-77
2023/01/04 04:23:42;;;;;;;11.77;1.70;;;12.30;99.90;;;;;;5079832;28;20050;-77
2023/01/04 04:26:10;;;;;;;12.73;1.67;;;12.30;99.90;;;;;;5099222;28;20047;-77
2023/01/04 04:28:38;;;;;;;13.30;1.60;;;12.30;99.90;;;;;;5117147;28;20044;-77
2023/01/04 04:31:06;;;;;;;9.32;1.63;;;12.80;99.90;;;;;;5081224;28;20048;-77
2023/01/04 04:33:33;;;;;;;8.60;1.60;;;12.30;99.90;;;;;;5116892;28;20062;-77
2023/01/04 04:36:00;;;;;;;7.95;1.55;;;12.30;99.90;;;;;;5082300;28;20464;-77
2023/01/04 04:38:28;;;;;;;11.48;1.77;;;12.40;99.90;;;;;;5097867;28;20044;-77
2023/01/04 04:43:41;;;;;;;11.90;1.73;;;12.30;99.90;;;;;;5097730;28;20376;-75
2023/01/04 04:46:09;;;;;;;12.48;2.10;;;12.40;99.90;;;;;;5116641;28;20369;-77
2023/01/04 04:48:36;;;;;;;11.63;2.00;;;12.40;99.90;;;;;;5082505;28;20044;-77
2023/01/04 04:51:04;;;;;;;15.70;2.45;;;12.40;99.90;;;;;;5115456;28;20051;-78
2023/01/04 04:53:32;;;;;;;17.25;2.10;;;12.40;99.90;;;;;;5116738;28;20058;-77
2023/01/04 04:55:59;;;;;;;13.85;2.05;;;12.40;99.90;;;;;;5116374;28;20379;-78
2023/01/04 04:58:27;;;;;;;13.13;2.28;;;12.40;99.90;;;;;;5115319;28;20487;-78
2023/01/04 05:00:54;;;;;;;13.60;2.30;;;12.50;99.90;;;;;;5098613;28;20047;-78
2023/01/04 05:03:22;;;;;;;13.00;1.75;;;12.60;99.90;;;;;;5082104;28;20459;-77
2023/01/04 05:05:49;;;;;;;15.38;2.28;;;12.60;99.90;;;;;;5115277;28;20043;-77
2023/01/04 05:08:17;;;;;;;16.45;2.40;;;12.60;99.90;;;;;;5081863;28;20047;-78
2023/01/04 05:10:45;;;;;;;13.23;2.20;;;12.50;99.90;;;;;;5115193;28;20039;-78
2023/01/04 05:13:12;;;;;;;16.42;2.40;;;12.70;99.90;;;;;;5116163;28;20097;-78
2023/01/04 05:15:46;;;;;;;12.57;2.17;;;12.50;99.90;;;;;;5098339;28;20472;-78
2023/01/04 05:18:16;;;;;;;15.70;2.67;;;12.50;99.90;;;;;;5114838;28;20044;-75
2023/01/04 05:20:43;;;;;;;19.60;3.10;;;12.60;99.90;;;;;;5081647;28;20066;-75
2023/01/04 05:23:13;;;;;;;19.02;3.03;;;12.60;99.90;;;;;;5115842;28;20122;-78
2023/01/04 05:25:41;;;;;;;25.30;3.25;;;12.60;99.90;;;;;;5097068;28;20040;-78
2023/01/04 05:28:09;;;;;;;25.48;3.17;;;12.60;99.90;;;;;;5098596;28;20067;-78
2023/01/04 05:30:52;;;;;;;29.83;3.80;;;12.60;99.90;;;;;;5097001;28;20051;-78
2023/01/04 05:33:26;;;;;;;26.95;3.90;;;12.80;99.90;;;;;;5115939;28;20048;-78
2023/01/04 05:35:55;;;;;;;24.95;4.20;;;12.60;99.90;;;;;;5115845;28;20051;-78
2023/01/04 05:38:23;;;;;;;27.40;4.32;;;12.60;99.90;;;;;;5079971;28;20105;-78
2023/01/04 05:40:51;;;;;;;29.65;4.45;;;12.70;99.90;;;;;;5098298;28;20376;-78
2023/01/04 05:43:20;;;;;;;;;;;12.70;99.90;;;;;;5098535;28;20048;-78
2023/01/04 05:45:55;;;;;;;38.88;4.35;;;12.70;99.90;;;;;;5079522;28;19931;-78
2023/01/04 05:48:24;;;;;;;27.67;4.03;;;12.70;99.90;;;;;;5114752;28;20061;-78
2023/01/04 05:50:52;;;;;;;33.83;4.50;;;12.70;99.90;;;;;;5096743;28;20364;-78
2023/01/04 05:53:20;;;;;;;39.53;4.80;;;12.70;99.90;;;;;;5097609;28;20062;-78
2023/01/04 05:55:48;;;;;;;29.48;3.85;;;12.60;99.90;;;;;;5097687;28;20387;-78
2023/01/04 05:58:15;;;;;;;34.70;4.22;;;12.50;99.90;;;;;;5079775;28;20649;-78
2023/01/04 06:00:43;;;;;;;31.23;4.35;;;12.60;99.90;;;;;;5115492;28;20468;-79
2023/01/04 06:03:10;;;;;;;20.75;3.10;;;12.60;99.90;;;;;;5098056;28;20055;-76
2023/01/04 06:05:38;;;;;;;21.58;3.78;;;12.50;99.90;;;;;;5114069;28;20375;-78
2023/01/04 06:08:06;;;;;;;22.02;3.58;;;12.60;99.90;;;;;;5080435;28;20056;-78
2023/01/04 06:10:33;;;;;;;;;;;12.50;99.90;;;;;;5096973;28;20321;-78
2023/01/04 06:13:01;;;;;;;22.42;3.17;;;12.50;99.90;;;;;;5115251;28;19927;-79
2023/01/04 06:15:28;;;;;;;24.50;3.75;;;12.70;99.90;;;;;;5080582;28;20062;-78
2023/01/04 06:17:56;;;;;;;31.90;3.58;;;12.50;99.90;;;;;;5114244;28;20050;-78
2023/01/04 06:20:24;;;;;;;24.27;3.30;;;12.50;99.90;;;;;;5080402;28;20488;-78
2023/01/04 06:22:51;;;;;;;24.33;3.72;;;12.50;99.90;;;;;;5115025;28;20039;-78
2023/01/04 06:25:19;;;;;;;19.52;3.15;;;12.70;99.90;;;;;;5114245;28;20042;-78
2023/01/04 06:27:46;;;;;;;23.13;3.20;;;12.50;99.90;;;;;;5097100;28;20380;-78
2023/01/04 06:30:14;;;;;;;27.08;3.40;;;12.50;99.90;;;;;;5115361;28;20464;-78
2023/01/04 06:32:42;;;;;;;23.20;3.45;;;12.50;99.90;;;;;;5097047;28;20051;-78
2023/01/04 06:35:09;;;;;;;26.75;3.60;;;12.60;99.90;;;;;;5114976;28;20039;-78
2023/01/04 06:37:37;;;;;;;23.40;3.38;;;12.60;99.90;;;;;;5096188;28;20059;-78
2023/01/04 06:40:05;;;;;;;25.00;2.78;;;12.60;99.90;;;;;;5097049;28;20040;-76
2023/01/04 06:42:45;;;;;;;;;;;12.60;99.90;;;;;;5097294;28;20475;-78
2023/01/04 06:45:14;;;;;;;20.42;3.03;;;12.60;99.90;;;;;;5096226;28;19920;-78
2023/01/04 06:47:42;;;;;;;19.92;2.85;;;12.60;99.90;;;;;;5115371;28;20050;-78
2023/01/04 06:50:10;;;;;;;15.77;2.90;;;12.60;99.90;;;;;;5080748;28;20055;-78
2023/01/04 06:52:40;;;;;;;18.90;2.92;;;12.70;99.90;;;;;;5114396;28;20368;-78
2023/01/04 06:55:08;;;;;;;18.38;2.75;;;12.60;99.90;;;;;;5097176;28;20063;-78
2023/01/04 06:57:36;;;;;;;18.45;3.08;;;12.60;99.90;;;;;;5096289;28;20059;-78
2023/01/04 07:00:07;;;;;;;19.92;2.72;;;12.60;99.90;;;;;;5081705;28;20111;-78
2023/01/04 07:02:34;;;;;;;16.83;2.88;;;12.60;99.90;;;;;;5084513;28;20035;-78
2023/01/04 07:05:02;;;;;;;17.98;3.22;;;12.60;99.90;;;;;;5099666;28;20042;-78
2023/01/04 07:07:32;;;;;;;23.23;3.38;;;12.60;99.90;;;;;;5098106;28;20044;-78
2023/01/04 07:10:00;;;;;;;22.55;3.38;;;12.60;99.90;;;;;;5098514;28;20066;-78
2023/01/04 07:12:37;;;;;;;12.27;2.40;;;12.70;99.90;;;;;;5062495;28;20492;-77
2023/01/04 07:15:05;;;;;;;17.90;2.80;;;12.60;99.90;;;;;;5098163;28;20044;-77
2023/01/04 07:17:52;;;;;;;21.83;3.42;;;12.70;99.90;;;;;;5078945;28;20036;-77
2023/01/04 07:20:20;;;;;;;26.00;3.40;;;12.70;99.90;;;;;;5097938;28;20040;-77
2023/01/04 07:22:47;;;;;;;18.60;3.25;;;12.70;99.90;;;;;;5080041;28;20048;-77
2023/01/04 07:25:15;;;;;;;18.38;3.55;;;12.80;99.90;;;;;;5079309;28;20337;-78
2023/01/04 07:27:42;;;;;;;16.30;3.28;;;12.60;99.90;;;;;;5063959;28;20473;-78
2023/01/04 07:30:11;;;;;;;16.98;3.40;;;12.60;99.90;;;;;;5098036;28;20066;-77
2023/01/04 07:32:38;;;;;;;18.50;3.55;;;12.60;99.90;;;;;;5062176;28;20396;-78
2023/01/04 07:35:06;;;;;;;18.23;3.58;;;12.80;99.90;;;;;;5098255;28;20052;-77
2023/01/04 07:37:33;;;;;;;21.85;3.20;;;12.60;99.90;;;;;;5079152;28;20047;-77
2023/01/04 07:40:01;;;;;;;13.80;2.70;;;12.60;99.90;;;;;;5097707;28;20040;-78
2023/01/04 07:42:28;;;;;;;18.27;3.03;;;12.60;99.90;;;;;;5080119;28;20044;-77
2023/01/04 07:44:56;;;;;;;21.35;3.30;;;12.60;99.90;;;;;;5078506;28;20052;-78
2023/01/04 07:47:23;;;;;;;14.13;2.40;;;12.60;99.90;;;;;;5080313;28;20052;-78
2023/01/04 07:49:50;;;;;;;16.80;2.72;;;12.60;99.90;;;;;;5096548;28;20044;-77
2023/01/04 07:52:18;;;;;;;17.95;2.63;;;12.50;99.90;;;;;;5095222;28;20066;-77
2023/01/04 07:54:46;;;;;;;14.20;2.63;;;12.60;99.90;;;;;;5097331;28;20396;-78
2023/01/04 07:57:13;;;;;;;14.57;3.17;;;12.50;99.90;;;;;;5078320;28;20250;-78
2023/01/04 07:59:41;;;;;;;15.35;3.13;;;12.50;99.90;;;;;;5079353;28;20380;-78
2023/01/04 08:02:12;;;;;;;10.68;2.40;;;12.50;99.90;;;;;;5097685;28;20055;-78
2023/01/04 08:04:39;;;;;;;19.38;2.75;;;12.50;99.90;;;;;;5096642;28;20044;-78
2023/01/04 08:07:07;;;;;;;16.27;3.30;;;12.40;99.90;;;;;;5079333;28;20048;-77
2023/01/04 08:09:36;;;;;;;15.98;2.55;;;12.70;99.90;;;;;;5096962;28;20044;-78
2023/01/04 08:12:05;;;;;;;15.07;2.80;;;12.50;99.90;;;;;;5094739;28;20368;-77
2023/01/04 08:14:33;;;;;;;14.07;2.78;;;12.40;99.90;;;;;;5062428;28;20051;-78
2023/01/04 08:17:00;;;;;;;17.13;3.05;;;12.40;99.90;;;;;;5096194;28;20044;-78
2023/01/04 08:19:28;;;;;;;16.63;2.88;;;12.40;99.90;;;;;;5062330;28;20043;-78
2023/01/04 08:21:57;;;;;;;18.15;2.70;;;12.30;99.90;;;;;;5095900;28;20052;-77
2023/01/04 08:24:24;;;;;;;17.67;2.55;;;12.60;99.90;;;;;;5095354;28;20040;-78
2023/01/04 08:26:52;;;;;;;18.30;3.03;;;12.30;99.90;;;;;;5062061;28;20396;-78
2023/01/04 08:29:19;;;;;;;19.77;2.85;;;12.30;99.90;;;;;;5077907;28;20052;-79
2023/01/04 08:31:47;;;;;;;17.50;2.88;;;12.30;99.90;;;;;;5060995;28;20067;-79
2023/01/04 08:34:17;;;;;;;17.95;2.67;;;12.30;99.90;;;;;;5078667;28;20043;-79
2023/01/04 08:36:47;;;;;;;16.35;2.78;;;12.60;99.90;;;;;;5096026;28;20464;-79
2023/01/04 08:39:15;;;;;;;20.05;2.85;;;12.60;99.90;;;;;;5095058;28;20044;-79
2023/01/04 08:41:55;;;;;;;27.10;2.80;;;12.30;99.90;;;;;;5078494;28;20495;-81
2023/01/04 08:44:27;;;;;;;21.55;3.20;;;12.30;99.90;;;;;;5044930;28;20059;-79
2023/01/04 08:46:58;;;;;;;20.25;2.70;;;12.20;99.90;;;;;;5078458;28;20043;-80
2023/01/04 08:49:26;;;;;;;17.73;2.60;;;12.30;99.90;;;;;;5060329;28;20052;-79
2023/01/04 08:51:53;;;;;;;18.67;2.70;;;12.30;99.90;;;;;;5077319;28;20063;-79
2023/01/04 08:54:24;;;;;;;19.05;2.80;;;12.30;99.90;;;;;;5095947;28;20511;-79
2023/01/04 08:56:51;;;;;;;11.55;1.95;;;12.30;99.90;;;;;;5078122;28;20051;-78
2023/01/04 08:59:19;;;;;;;15.63;2.80;;;12.70;99.90;;;;;;5094626;28;20047;-79
2023/01/04 09:01:46;;;;;;;20.88;2.88;;;12.40;99.90;;;;;;5064159;28;20040;-79
2023/01/04 09:04:15;;;;;;;15.40;2.65;;;12.40;99.90;;;;;;5077531;28;20052;-79
2023/01/04 09:06:42;;;;;;;19.13;2.72;;;12.50;99.90;;;;;;5109831;28;20052;-79
2023/01/04 09:09:10;;;;;;;14.38;2.30;;;12.50;99.90;;;;;;5098862;28;20048;-79
2023/01/04 09:11:38;;;;;;;23.60;3.05;;;12.50;99.90;;;;;;5115659;28;20392;-79
2023/01/04 09:14:07;;;;;;;24.75;2.90;;;12.50;99.90;;;;;;5065049;28;20059;-79
2023/01/04 09:16:36;;;;;;;22.20;3.03;;;12.50;99.90;;;;;;5116193;28;20365;-79
2023/01/04 09:19:05;;;;;;;18.05;3.10;;;12.60;99.90;;;;;;5097343;28;20476;-79
2023/01/04 09:21:32;;;;;;;;;;;12.60;99.90;;;;;;5116944;28;20044;-79
2023/01/04 09:24:00;;;;;;;21.45;3.05;;;12.50;99.90;;;;;;5097263;28;19990;-79
2023/01/04 09:26:27;;;;;;;18.60;3.00;;;12.60;99.90;;;;;;5116643;28;20498;-79
2023/01/04 09:28:55;;;;;;;22.00;3.25;;;12.80;99.90;;;;;;5116055;28;20048;-79
2023/01/04 09:31:26;;;;;;;18.25;2.95;;;12.60;99.90;;;;;;5114929;28;20055;-78
2023/01/04 09:33:55;;;;;;;25.55;3.30;;;12.60;99.90;;;;;;5116453;28;20341;-79
2023/01/04 09:36:42;;;;;;;;;;;12.60;99.90;;;;;;5116500;28;20367;-79
2023/01/04 09:39:10;;;;;;;19.55;3.03;;;12.60;99.90;;;;;;5114845;28;19919;-79
2023/01/04 09:41:58;;;;;;;24.67;3.28;;;12.60;99.90;;;;;;5097943;28;20058;-78
2023/01/04 09:44:40;;;;;;;25.83;3.78;;;12.60;99.90;;;;;;5115339;28;20364;-78
2023/01/04 09:47:42;;;;;;;22.40;3.20;;;12.60;99.90;;;;;;5115545;28;20036;-79
2023/01/04 09:50:19;;;;;;;22.35;2.80;;;12.70;99.90;;;;;;5081014;28;20043;-78
2023/01/04 09:52:56;;;;;;;;;;;12.70;99.90;;;;;;5116237;28;20047;-78
2023/01/04 09:55:35;;;;;;;21.23;3.53;;;12.70;99.90;;;;;;5081064;28;19920;-78
2023/01/04 09:58:39;;;;;;;26.30;4.20;;;12.80;99.90;;;;;;5114745;28;20040;-79
2023/01/04 10:01:15;;;;;;;17.67;3.38;;;12.80;99.90;;;;;;5097776;28;20471;-78
2023/01/04 10:04:06;;;;;;;23.95;3.70;;;12.80;99.90;;;;;;5115096;28;20043;-77
2023/01/04 10:06:47;;;;;;;27.15;4.18;;;12.90;99.90;;;;;;5093850;28;20040;-82
2023/01/04 10:09:59;;;;;;;26.95;4.18;;;12.90;99.90;;;;;;5080823;28;20040;-82
2023/01/04 10:13:59;;;;;;;24.00;3.97;;;13.20;99.90;;;;;;5107244;27;20048;-82
2023/01/04 10:16:42;;;;;;;29.50;4.15;;;13.10;99.90;;;;;;5074474;28;20473;-79
2023/01/04 10:20:09;;;;;;;25.25;4.10;;;13.30;99.90;;;;;;5046471;28;20040;-80
2023/01/04 10:23:16;;;;;;;;;;;13.10;99.90;;;;;;5077259;28;20457;-80
2023/01/04 10:26:22;;;;;;;23.88;4.30;;;11.90;99.90;;;;;;5041685;28;19921;-80
2023/01/04 10:28:58;;;;;;;27.65;4.22;;;13.20;99.90;;;;;;5035558;28;20068;-77
2023/01/04 10:31:52;;;;;;;20.50;4.15;;;13.20;99.90;;;;;;4999943;28;20128;-75
2023/01/04 10:34:26;;;;;;;25.35;3.78;;;13.30;99.90;;;;;;5052516;28;20067;-76
2023/01/04 10:36:58;;;;;;;24.65;4.05;;;13.30;99.90;;;;;;5039791;28;20548;-77
2023/01/04 10:39:30;;;;;;;26.27;4.10;;;13.40;99.90;;;;;;5039963;28;20116;-74
2023/01/04 10:42:11;;;;;;;26.38;4.22;;;13.40;99.90;;;;;;5056418;28;20063;-75
2023/01/04 10:44:56;;;;;;;26.67;4.15;;;13.40;99.90;;;;;;5102739;28;20047;-74
2023/01/04 10:47:44;;;;;;;22.33;3.80;;;13.40;99.90;;;;;;5118657;28;20036;-75
2023/01/04 10:50:17;;;;;;;23.92;3.95;;;13.50;99.90;;;;;;5100528;28;20375;-75
2023/01/04 10:52:52;;;;;;;26.05;3.97;;;13.60;99.90;;;;;;5118890;28;20051;-75
2023/01/04 10:55:33;;;;;;;26.88;4.13;;;13.60;99.90;;;;;;5119087;28;20044;-74
2023/01/04 10:58:18;;;;;;;23.77;3.97;;;13.60;99.90;;;;;;5100031;28;20051;-75
2023/01/04 11:00:55;;;;;;;23.60;4.38;;;13.60;99.90;;;;;;5118873;28;20058;-75
2023/01/04 11:03:38;;;;;;;26.38;4.45;;;13.60;99.90;;;;;;5119091;28;20035;-75
2023/01/04 11:06:17;;;;;;;27.63;4.28;;;13.70;99.90;;;;;;5118769;28;20040;-75
2023/01/04 11:08:52;;;;;;;27.35;4.30;;;13.70;99.90;;;;;;5100997;28;20039;-75
2023/01/04 11:11:46;;;;;;;18.80;3.83;;;13.80;99.90;;;;;;5099548;28;20047;-75
2023/01/04 11:14:14;;;;;;;24.90;3.90;;;13.90;99.90;;;;;;5097745;28;20056;-74
2023/01/04 11:16:50;;;;;;;23.95;4.63;;;13.90;99.90;;;;;;5118473;28;20044;-75
2023/01/04 11:19:17;;;;;;;19.83;3.75;;;13.90;99.90;;;;;;5117435;28;20059;-75
2023/01/04 11:22:02;;;;;;;29.70;4.75;;;14.00;99.90;;;;;;5118533;28;20047;-74
2023/01/04 11:24:31;;;;;;;27.17;4.25;;;14.00;99.90;;;;;;5117505;28;20054;-74
2023/01/04 11:27:13;;;;;;;25.50;3.95;;;14.00;99.90;;;;;;5118230;28;20039;-75
2023/01/04 11:29:47;;;;;;;21.50;3.65;;;14.10;99.90;;;;;;5100381;28;20047;-74
2023/01/04 11:32:36;;;;;;;24.48;4.60;;;14.00;99.90;;;;;;5117102;28;20047;-74
2023/01/04 11:35:04;;;;;;;22.15;3.90;;;14.10;99.90;;;;;;5100560;28;20126;-74
2023/01/04 11:37:33;;;;;;;;;;;14.10;99.90;;;;;;5098891;28;20039;-74
2023/01/04 11:40:15;;;;;;;27.52;4.50;;;14.10;99.90;;;;;;5099581;28;19930;-75
2023/01/04 11:43:10;;;;;;;27.58;4.00;;;14.00;99.90;;;;;;5099817;28;20357;-75
2023/01/04 11:45:38;;;;;;;21.83;4.20;;;14.00;99.90;;;;;;5116388;28;20046;-75
2023/01/04 11:48:06;;;;;;;21.85;3.95;;;14.00;99.90;;;;;;5117413;28;20384;-76
2023/01/04 11:50:46;;;;;;;17.70;3.58;;;14.00;99.90;;;;;;5116162;28;20474;-76
2023/01/04 11:53:30;;;;;;;22.70;3.55;;;14.10;99.90;;;;;;5082829;28;20058;-77
2023/01/04 11:56:10;;;;;;;26.77;4.65;;;14.10;99.90;;;;;;5099749;28;20056;-75
2023/01/04 11:58:38;;;;;;;31.13;4.70;;;14.10;99.90;;;;;;5116303;28;20051;-76
2023/01/04 12:01:19;;;;;;;23.17;4.10;;;14.10;99.90;;;;;;5117164;28;20044;-76
2023/01/04 12:03:47;;;;;;;25.73;4.20;;;14.10;99.90;;;;;;5116236;28;20043;-75
2023/01/04 12:06:39;;;;;;;26.63;4.03;;;14.10;99.90;;;;;;5112048;28;20040;-75
2023/01/04 12:09:15;;;;;;;22.73;4.18;;;14.10;99.90;;;;;;5079112;28;20064;-75
2023/01/04 12:11:50;;;;;;;23.80;5.00;;;14.10;99.90;;;;;;5077812;28;20078;-75
2023/01/04 12:14:33;;;;;;;22.85;4.43;;;14.10;99.90;;;;;;5062529;28;20472;-75
2023/01/04 12:17:06;;;;;;;24.80;3.83;;;14.20;99.90;;;;;;5095629;28;20373;-75
2023/01/04 12:19:35;;;;;;;26.40;4.28;;;14.30;99.90;;;;;;5096395;28;20040;-75
2023/01/04 12:22:18;;;;;;;28.00;4.40;;;14.30;99.90;;;;;;5078722;28;20045;-74
2023/01/04 12:24:46;;;;;;;20.60;4.10;;;14.30;99.90;;;;;;5095369;28;20044;-74
2023/01/04 12:27:14;;;;;;;20.70;4.38;;;14.20;99.90;;;;;;5078906;28;20349;-74
2023/01/04 12:29:55;;;;;;;22.17;4.07;;;14.20;99.90;;;;;;5062062;28;20055;-74
2023/01/04 12:32:25;;;;;;;24.00;4.35;;;14.20;99.90;;;;;;5095173;28;20048;-75
2023/01/04 12:34:54;;;;;;;26.38;4.78;;;14.20;99.90;;;;;;5095968;28;20059;-74
2023/01/04 12:37:36;;;;;;;21.38;3.65;;;14.20;99.90;;;;;;5077378;28;20465;-74
2023/01/04 12:40:42;;;;;;;26.98;4.63;;;14.20;99.90;;;;;;5078584;28;20047;-75
2023/01/04 12:43:15;;;;;;;25.63;4.88;;;14.20;99.90;;;;;;5096051;28;20047;-75
2023/01/04 12:49:02;;;;;;;24.73;4.40;;;14.20;99.90;;;;;;5094922;28;20064;-74
2023/01/04 12:51:24;;;;;;;34.30;4.88;;;14.20;99.90;;;;;;5076943;28;20070;-74
2023/01/04 12:54:03;;;;;;;31.50;5.30;;;14.20;99.90;;;;;;5096011;28;20055;-73
2023/01/04 12:57:09;;;;;;;25.08;4.43;;;14.20;99.90;;;;;;5096392;28;20048;-75
2023/01/04 12:59:51;;;;;;;24.45;4.65;;;14.20;99.90;;;;;;5077796;28;20365;-74
2023/01/04 13:02:27;;;;;;;29.73;4.85;;;14.10;99.90;;;;;;5078122;28;20055;-72
2023/01/04 13:04:58;;;;;;;29.35;4.72;;;14.00;99.90;;;;;;5076896;28;20044;-73
2023/01/04 13:07:50;;;;;;;27.08;4.68;;;13.90;99.90;;;;;;5095671;28;20065;-73
2023/01/04 13:10:34;;;;;;;27.73;4.75;;;13.80;99.90;;;;;;5076909;28;20048;-74
2023/01/04 13:13:20;;;;;;;34.05;5.03;;;13.60;99.90;;;;;;5078067;28;20056;-73
2023/01/04 13:16:15;;;;;;;28.90;4.70;;;13.50;99.90;;;;;;5077979;28;20063;-74
2023/01/04 13:18:53;;;;;;;33.85;4.97;;;13.40;99.90;;;;;;5094366;28;20044;-74
2023/01/04 13:21:40;;;;;;;33.35;5.18;;;13.40;99.90;;;;;;5077607;28;20118;-74
2023/01/04 13:24:25;;;;;;;26.73;4.43;;;13.40;99.90;;;;;;5094301;28;20364;-73
2023/01/04 13:26:54;;;;;;;35.38;5.22;;;13.40;99.90;;;;;;5061113;28;20039;-73
2023/01/04 13:29:21;;;;;;;;;;;13.50;99.90;;;;;;5077911;28;20040;-73
2023/01/04 13:32:00;;;;;;;25.65;4.57;;;13.50;99.90;;;;;;5076180;28;20364;-73
2023/01/04 13:34:33;;;;;;;30.38;5.38;;;13.40;99.90;;;;;;5095269;28;20040;-73
2023/01/04 13:37:10;;;;;;;31.88;4.53;;;13.50;99.90;;;;;;5076402;28;20052;-76
2023/01/04 13:39:46;;;;;;;40.63;6.05;;;13.50;99.90;;;;;;5095009;28;20491;-76
2023/01/04 13:42:23;;;;;;;30.70;5.25;;;13.50;99.90;;;;;;5077252;28;20051;-76
2023/01/04 13:45:16;;;;;;;33.80;5.68;;;13.40;99.90;;;;;;5094479;28;20047;-74
2023/01/04 13:47:50;;;;;;;39.60;5.70;;;13.40;99.90;;;;;;5077348;28;20048;-77
2023/01/04 13:50:39;;;;;;;31.75;5.50;;;13.40;99.90;;;;;;5076855;28;20040;-84
2023/01/04 13:53:20;;;;;;;34.03;6.07;;;13.30;99.90;;;;;;5095323;28;20044;-79
2023/01/04 13:55:53;;;;;;;33.40;5.70;;;13.30;99.90;;;;;;5094249;28;20051;-79
2023/01/04 13:58:24;;;;;;;31.35;5.40;;;13.40;99.90;;;;;;5094041;28;20040;-78